Time;durP1;ratioP1;P1;durP2;ratioP2;P2;SDS_P1;SDS_P2;PMS_P1;PMS_P2;Temp;Humidity;BMP_temperature;BMP_pressure;BME280_temperature;BME280_humidity;BME280_pressure;Samples;Min_cycle;Max_cycle;Signal;HPM_P1;HPM_P2
2023/10/06 00:02:55;;;;;;;;;;;;;;;20.93;62.62;101981.41;5053342;28;19919;-85
2023/10/06 00:05:21;;;;;;;;;;;;;;;20.93;62.73;101974.38;5023360;28;19929;-86
2023/10/06 00:07:46;;;;;;;;;;;;;;;20.95;62.44;101985.00;5013867;28;19921;-85
2023/10/06 00:10:17;;;;;;;;;;;;;;;20.90;62.59;101982.22;5004523;28;19940;-85
2023/10/06 00:12:50;;;;;;;;;;;;;;;20.93;62.46;101981.41;5019982;28;20370;-86
2023/10/06 00:15:26;;;;;;;;;;;;;;;20.89;62.63;101982.16;5029969;28;19921;-85
2023/10/06 00:17:55;;;;;;;;;;;;;;;20.92;62.55;101980.50;5037295;28;20317;-85
2023/10/06 00:20:38;;;;;;;;;;;;;;;20.93;62.42;101986.72;5023824;28;20420;-84
2023/10/06 00:23:06;;;;;;;;;;;;;;;20.91;62.44;101984.03;5029455;28;20283;-84
2023/10/06 00:25:35;;;;;;;;;;;;;;;20.93;62.48;101992.03;5012430;28;20064;-85
2023/10/06 00:28:03;;;;;;;;;;;;;;;20.92;62.39;101985.81;5023256;28;19952;-84
2023/10/06 00:30:28;;;;;;;;;;;;;;;20.89;62.50;101982.16;5024457;28;20325;-85
2023/10/06 00:32:55;;;;;;;;;;;;;;;20.93;62.37;101984.06;5005272;28;20390;-86
2023/10/06 00:35:30;;;;;;;;;;;;;;;20.93;62.30;101984.06;5028283;28;19961;-84
2023/10/06 00:37:58;;;;;;;;;;;;;;;20.93;62.42;101984.06;5020870;28;19925;-85
2023/10/06 00:40:25;;;;;;;;;;;;;;;20.90;62.46;101981.31;4998350;28;20353;-85
2023/10/06 00:42:51;;;;;;;;;;;;;;;20.88;62.40;101972.41;5032174;28;19917;-85
2023/10/06 00:45:16;;;;;;;;;;;;;;;20.93;62.30;101973.44;5029639;28;19929;-86
2023/10/06 00:47:42;;;;;;;;;;;;;;;20.88;62.34;101968.00;5016666;28;20440;-86
2023/10/06 00:50:10;;;;;;;;;;;;;;;20.88;62.36;101965.34;5035330;28;19921;-86
2023/10/06 00:52:36;;;;;;;;;;;;;;;20.88;62.33;101965.34;5014902;28;19913;-85
2023/10/06 00:55:05;;;;;;;;;;;;;;;20.89;62.30;101968.88;5014885;28;20023;-85
2023/10/06 00:57:31;;;;;;;;;;;;;;;20.88;62.24;101972.41;5015090;28;20066;-83
2023/10/06 00:59:57;;;;;;;;;;;;;;;20.91;62.19;101967.19;5027776;28;19960;-85
2023/10/06 01:02:23;;;;;;;;;;;;;;;20.90;62.26;101976.00;5022275;28;20445;-84
2023/10/06 01:04:52;;;;;;;;;;;;;;;20.88;62.19;101975.06;5032590;28;20003;-84
2023/10/06 01:07:18;;;;;;;;;;;;;;;20.85;62.23;101972.31;5051818;28;19974;-84
2023/10/06 01:09:56;;;;;;;;;;;;;;;20.84;62.27;101973.16;5033236;28;19999;-84
2023/10/06 01:12:23;;;;;;;;;;;;;;;20.86;62.36;101974.13;5025873;28;19928;-84
2023/10/06 01:14:51;;;;;;;;;;;;;;;20.86;62.16;101968.81;5040719;28;19921;-84
2023/10/06 01:17:17;;;;;;;;;;;;;;;20.81;62.37;101966.00;5033107;28;19928;-85
2023/10/06 01:19:49;;;;;;;;;;;;;;;20.87;62.07;101967.94;5050440;28;19912;-82
2023/10/06 01:22:29;;;;;;;;;;;;;;;20.81;62.30;101965.13;5048685;28;20321;-84
2023/10/06 01:24:55;;;;;;;;;;;;;;;20.83;62.03;101966.06;5024043;28;19983;-85
2023/10/06 01:27:25;;;;;;;;;;;;;;;20.78;62.36;101962.34;5055894;28;19940;-83
2023/10/06 01:30:07;;;;;;;;;;;;;;;20.84;62.21;101958.13;5031550;28;19917;-83
2023/10/06 01:32:33;;;;;;;;;;;;;;;20.79;62.24;101964.16;5045724;28;19919;-86
2023/10/06 01:34:58;;;;;;;;;;;;;;;20.80;62.21;101961.53;5057105;28;20313;-86
2023/10/06 01:37:24;;;;;;;;;;;;;;;20.79;62.34;101957.09;5049847;28;19962;-85
2023/10/06 01:39:51;;;;;;;;;;;;;;;20.76;62.38;101957.00;5050268;28;19917;-85
2023/10/06 01:42:17;;;;;;;;;;;;;;;20.78;62.28;101954.38;5032971;28;19991;-85
2023/10/06 01:44:43;;;;;;;;;;;;;;;20.76;62.20;101956.09;5024167;28;20386;-86
2023/10/06 01:47:08;;;;;;;;;;;;;;;20.78;62.29;101954.38;5052412;28;19974;-85
2023/10/06 01:49:34;;;;;;;;;;;;;;;20.74;62.19;101951.66;5013037;28;20003;-85
2023/10/06 01:52:07;;;;;;;;;;;;;;;20.74;62.25;101954.31;5045544;28;19913;-85
2023/10/06 01:54:35;;;;;;;;;;;;;;;20.73;62.24;101955.16;5050047;28;19917;-85
2023/10/06 01:57:06;;;;;;;;;;;;;;;20.73;62.34;101959.56;5038574;28;20428;-85
2023/10/06 01:59:32;;;;;;;;;;;;;;;20.75;62.24;101955.19;5032750;28;20317;-85
2023/10/06 02:02:01;;;;;;;;;;;;;;;20.73;62.33;101963.09;5040482;28;20413;-86
2023/10/06 02:04:33;;;;;;;;;;;;;;;20.71;62.32;101959.50;5031106;28;20003;-86
2023/10/06 02:06:59;;;;;;;;;;;;;;;20.74;62.22;101962.28;5032008;28;20353;-84
2023/10/06 02:09:25;;;;;;;;;;;;;;;20.73;62.27;101956.91;5045221;28;19952;-86
2023/10/06 02:11:50;;;;;;;;;;;;;;;20.69;62.29;101955.00;5039932;28;19959;-84
2023/10/06 02:14:19;;;;;;;;;;;;;;;20.71;62.18;101951.53;5058359;28;20098;-85
2023/10/06 02:16:44;;;;;;;;;;;;;;;20.71;62.18;101951.53;5050782;28;20078;-85
2023/10/06 02:19:10;;;;;;;;;;;;;;;20.75;62.12;101949.91;5031771;28;20003;-85
2023/10/06 02:21:42;;;;;;;;;;;;;;;20.71;62.28;101950.66;5031891;28;20571;-84
2023/10/06 02:24:08;;;;;;;;;;;;;;;20.69;62.24;101947.94;5019914;28;19913;-83
2023/10/06 02:26:36;;;;;;;;;;;;;;;20.64;62.32;101946.91;5025927;28;19920;-84
2023/10/06 02:29:07;;;;;;;;;;;;;;;20.69;62.29;101941.72;5042038;28;19931;-84
2023/10/06 02:31:35;;;;;;;;;;;;;;;20.68;62.25;101938.19;5038222;28;19921;-85
2023/10/06 02:34:00;;;;;;;;;;;;;;;20.67;62.21;101944.31;5033151;28;19919;-85
2023/10/06 02:36:26;;;;;;;;;;;;;;;20.65;62.24;101940.72;5047847;28;19916;-83
2023/10/06 02:38:51;;;;;;;;;;;;;;;20.64;62.29;101943.34;5044235;28;20083;-84
2023/10/06 02:41:19;;;;;;;;;;;;;;;20.65;62.15;101948.69;5050501;28;20028;-85
2023/10/06 02:43:48;;;;;;;;;;;;;;;20.68;62.13;101946.16;5031725;28;19948;-85
2023/10/06 02:46:15;;;;;;;;;;;;;;;20.64;62.27;101940.69;5032982;28;20394;-86
2023/10/06 02:48:50;;;;;;;;;;;;;;;20.66;62.24;101931.94;5030998;28;20329;-86
2023/10/06 02:51:20;;;;;;;;;;;;;;;20.62;62.17;101935.34;5033219;28;19916;-85
2023/10/06 02:53:50;;;;;;;;;;;;;;;20.63;62.17;101933.56;5032383;28;19992;-85
2023/10/06 02:56:21;;;;;;;;;;;;;;;20.62;62.24;101935.34;5049093;28;19913;-86
2023/10/06 02:58:46;;;;;;;;;;;;;;;20.63;62.13;101931.81;5044262;28;19963;-86
2023/10/06 03:01:14;;;;;;;;;;;;;;;20.64;62.08;101933.63;5054934;28;19920;-86
2023/10/06 03:03:39;;;;;;;;;;;;;;;20.65;61.95;101932.75;5029306;28;19948;-85
2023/10/06 03:06:07;;;;;;;;;;;;;;;20.64;61.94;101924.78;5042903;28;19964;-83
2023/10/06 03:08:38;;;;;;;;;;;;;;;20.63;61.94;101934.47;5050966;28;20471;-83
2023/10/06 03:11:03;;;;;;;;;;;;;;;20.63;61.95;101933.56;5033131;28;20418;-83
2023/10/06 03:13:33;;;;;;;;;;;;;;;20.57;62.24;101931.59;5048079;28;19917;-84
2023/10/06 03:15:59;;;;;;;;;;;;;;;20.58;62.08;101929.88;5035466;28;19931;-84
2023/10/06 03:18:25;;;;;;;;;;;;;;;20.58;62.14;101933.44;5034555;28;20400;-84
2023/10/06 03:20:53;;;;;;;;;;;;;;;20.60;62.01;101937.03;5032901;28;20378;-85
2023/10/06 03:23:38;;;;;;;;;;;;;;;20.58;62.10;101928.13;5025015;28;19917;-86
2023/10/06 03:26:24;;;;;;;;;;;;;;;20.59;61.93;101934.31;5033405;28;19933;-84
2023/10/06 03:28:50;;;;;;;;;;;;;;;20.59;61.83;101926.38;5036205;28;19975;-85
2023/10/06 03:33:44;;;;;;;;;;;;;;;20.59;62.02;101931.69;5034272;28;19917;-85
2023/10/06 03:36:11;;;;;;;;;;;;;;;20.58;62.02;101932.53;5049730;28;19917;-85
2023/10/06 03:38:36;;;;;;;;;;;;;;;20.56;61.99;101937.75;5033024;28;19931;-85
2023/10/06 03:41:18;;;;;;;;;;;;;;;20.57;61.94;101923.63;5026715;28;19921;-84
2023/10/06 03:43:50;;;;;;;;;;;;;;;20.55;62.00;101930.63;5045836;28;19923;-85
2023/10/06 03:46:18;;;;;;;;;;;;;;;20.54;61.98;101921.78;5032578;28;19948;-84
2023/10/06 03:48:50;;;;;;;;;;;;;;;20.55;61.91;101920.00;5032692;28;20349;-85
2023/10/06 03:51:16;;;;;;;;;;;;;;;20.53;61.96;101927.03;5034306;28;19920;-85
2023/10/06 03:53:42;;;;;;;;;;;;;;;20.52;62.05;101925.25;5032696;28;19925;-86
2023/10/06 03:56:08;;;;;;;;;;;;;;;20.50;62.22;101932.25;5050362;28;19927;-84
2023/10/06 03:58:34;;;;;;;;;;;;;;;20.54;61.98;101932.41;5033906;28;19952;-84
2023/10/06 04:01:07;;;;;;;;;;;;;;;20.49;62.10;101934.00;5028157;28;19956;-86
2023/10/06 04:03:33;;;;;;;;;;;;;;;20.51;61.96;101927.00;5030083;28;20311;-85
2023/10/06 04:06:03;;;;;;;;;;;;;;;20.51;61.90;101932.31;5059986;28;19921;-85
2023/10/06 04:08:29;;;;;;;;;;;;;;;20.48;62.09;101936.59;5032123;28;19916;-85
2023/10/06 04:11:00;;;;;;;;;;;;;;;20.49;62.03;101933.13;5043955;28;19975;-85
2023/10/06 04:13:26;;;;;;;;;;;;;;;20.49;62.00;101936.66;5040651;28;20361;-84
2023/10/06 04:15:57;;;;;;;;;;;;;;;20.50;61.93;101941.09;5047445;28;19921;-86
2023/10/06 04:18:23;;;;;;;;;;;;;;;20.47;61.99;101940.13;5045092;28;19928;-85
2023/10/06 04:20:49;;;;;;;;;;;;;;;20.48;61.92;101945.47;5050647;28;19916;-86
2023/10/06 04:23:17;;;;;;;;;;;;;;;20.48;61.99;101940.16;5050600;28;20394;-86
2023/10/06 04:25:42;;;;;;;;;;;;;;;20.46;61.92;101944.50;5031827;28;19925;-84
2023/10/06 04:28:08;;;;;;;;;;;;;;;20.46;62.06;101946.28;5025537;28;20071;-86
2023/10/06 04:30:37;;;;;;;;;;;;;;;20.45;61.88;101944.50;5038786;28;19960;-86
2023/10/06 04:33:06;;;;;;;;;;;;;;;20.45;62.11;101941.84;5031194;28;19956;-85
2023/10/06 04:35:32;;;;;;;;;;;;;;;20.45;61.97;101944.50;5057093;28;20429;-85
2023/10/06 04:38:01;;;;;;;;;;;;;;;20.49;61.78;101949.94;5029044;28;19921;-86
2023/10/06 04:40:27;;;;;;;;;;;;;;;20.46;61.96;101944.50;5024341;28;20001;-86
2023/10/06 04:42:52;;;;;;;;;;;;;;;20.45;61.93;101956.00;5030969;28;19936;-86
2023/10/06 04:45:18;;;;;;;;;;;;;;;20.41;62.10;101947.88;5028376;28;19921;-87
2023/10/06 04:47:43;;;;;;;;;;;;;;;20.42;61.99;101949.69;5042998;28;19956;-86
2023/10/06 04:50:12;;;;;;;;;;;;;;;20.39;62.09;101960.22;5041968;28;19961;-87
2023/10/06 04:52:38;;;;;;;;;;;;;;;20.42;62.03;101960.28;5027879;28;19921;-86
2023/10/06 04:55:04;;;;;;;;;;;;;;;20.46;61.74;101963.09;5029262;28;19924;-87
2023/10/06 04:57:29;;;;;;;;;;;;;;;20.42;61.86;101963.84;5031020;28;19920;-86
2023/10/06 04:59:55;;;;;;;;;;;;;;;20.36;62.22;101966.28;5023606;28;19921;-87
2023/10/06 05:02:22;;;;;;;;;;;;;;;20.34;62.31;101965.38;5050094;28;19917;-85
2023/10/06 05:04:47;;;;;;;;;;;;;;;20.36;62.08;101963.63;5029069;28;20012;-86
2023/10/06 05:07:13;;;;;;;;;;;;;;;20.36;62.05;101965.38;5040286;28;20004;-84
2023/10/06 05:09:40;;;;;;;;;;;;;;;20.33;62.12;101968.84;5047852;28;19917;-86
2023/10/06 05:12:05;;;;;;;;;;;;;;;20.34;62.31;101965.38;5042739;28;19972;-86
2023/10/06 05:14:34;;;;;;;;;;;;;;;20.33;62.16;101979.47;5025059;28;19920;-84
2023/10/06 05:16:59;;;;;;;;;;;;;;;20.32;62.18;101978.56;5040748;28;19929;-85
2023/10/06 05:19:26;;;;;;;;;;;;;;;20.34;62.05;101983.94;5028102;28;19928;-86
2023/10/06 05:21:53;;;;;;;;;;;;;;;20.33;62.09;101980.34;5012494;28;20386;-85
2023/10/06 05:24:18;;;;;;;;;;;;;;;20.34;62.04;101986.59;5049049;28;19928;-87
2023/10/06 05:26:44;;;;;;;;;;;;;;;20.32;62.14;101981.22;5015493;28;19917;-86
2023/10/06 05:29:14;;;;;;;;;;;;;;;20.29;62.21;101983.75;5045049;28;20027;-86
2023/10/06 05:31:39;;;;;;;;;;;;;;;20.29;62.17;101991.72;5035430;28;19980;-88
2023/10/06 05:34:07;;;;;;;;;;;;;;;20.29;62.34;101994.38;5027041;28;19925;-83
2023/10/06 05:36:33;;;;;;;;;;;;;;;20.32;62.13;102001.56;5046301;28;20027;-84
2023/10/06 05:38:59;;;;;;;;;;;;;;;20.28;62.21;101995.22;5046519;28;20466;-84
2023/10/06 05:41:34;;;;;;;;;;;;;;;20.27;62.22;101995.16;5031525;28;19920;-85
2023/10/06 05:43:59;;;;;;;;;;;;;;;20.33;61.79;101995.38;5047544;28;19917;-86
2023/10/06 05:46:25;;;;;;;;;;;;;;;20.25;62.14;102002.19;5032238;28;20003;-86
2023/10/06 05:48:53;;;;;;;;;;;;;;;20.28;62.34;101999.66;5016488;28;19913;-86
2023/10/06 05:51:21;;;;;;;;;;;;;;;20.28;62.37;102003.19;5051341;28;20310;-85
2023/10/06 05:53:48;;;;;;;;;;;;;;;20.27;62.72;102011.97;5050552;28;19929;-84
2023/10/06 05:56:15;;;;;;;;;;;;;;;20.28;62.77;102012.91;5030375;28;19975;-84
2023/10/06 05:58:43;;;;;;;;;;;;;;;20.32;63.15;102006.84;5032374;28;20365;-84
2023/10/06 06:01:18;;;;;;;;;;;;;;;20.32;63.26;102013.06;5032822;28;19955;-84
2023/10/06 06:03:46;;;;;;;;;;;;;;;20.32;63.25;102018.38;5034634;28;19913;-84
2023/10/06 06:06:14;;;;;;;;;;;;;;;20.33;63.19;102017.50;5036720;28;19975;-84
2023/10/06 06:08:43;;;;;;;;;;;;;;;20.38;63.01;102022.06;5050734;28;19917;-85
2023/10/06 06:11:08;;;;;;;;;;;;;;;20.35;63.32;102012.25;5029145;28;19923;-84
2023/10/06 06:13:37;;;;;;;;;;;;;;;20.32;63.37;102014.81;5023508;28;19917;-84
2023/10/06 06:16:02;;;;;;;;;;;;;;;20.31;63.50;102018.31;5045323;28;20015;-87
2023/10/06 06:18:28;;;;;;;;;;;;;;;20.33;63.55;102025.47;5046820;28;20032;-85
2023/10/06 06:20:54;;;;;;;;;;;;;;;20.36;63.39;102027.31;5027589;28;19960;-85
2023/10/06 06:23:20;;;;;;;;;;;;;;;20.31;63.67;102028.91;5022696;28;19917;-85
2023/10/06 06:25:45;;;;;;;;;;;;;;;20.36;63.67;102019.34;5028857;28;19921;-85
2023/10/06 06:28:14;;;;;;;;;;;;;;;20.39;63.53;102026.53;5012996;28;19928;-85
2023/10/06 06:30:40;;;;;;;;;;;;;;;20.36;63.66;102019.34;5044171;28;19917;-85
2023/10/06 06:33:08;;;;;;;;;;;;;;;20.39;63.49;102016.81;5030565;28;19917;-86
2023/10/06 06:35:35;;;;;;;;;;;;;;;20.41;63.44;102017.78;5057429;28;19913;-85
2023/10/06 06:38:01;;;;;;;;;;;;;;;20.39;63.60;102015.91;5023294;28;19916;-85
2023/10/06 06:40:30;;;;;;;;;;;;;;;20.42;63.49;102026.63;5008864;28;19917;-86
2023/10/06 06:42:55;;;;;;;;;;;;;;;20.42;63.54;102032.81;5021529;28;20282;-85
2023/10/06 06:45:24;;;;;;;;;;;;;;;20.40;63.74;102023.03;5033333;28;20432;-85
2023/10/06 06:47:50;;;;;;;;;;;;;;;20.40;63.77;102028.31;5034977;28;19923;-85
2023/10/06 06:50:15;;;;;;;;;;;;;;;20.40;63.63;102026.56;5057394;28;20001;-86
2023/10/06 06:52:42;;;;;;;;;;;;;;;20.41;63.71;102028.38;5022869;28;19953;-85
2023/10/06 06:55:12;;;;;;;;;;;;;;;20.41;63.47;102027.50;5035890;28;20309;-84
2023/10/06 06:57:43;;;;;;;;;;;;;;;20.41;63.53;102024.84;5045398;28;19925;-86
2023/10/06 07:00:15;;;;;;;;;;;;;;;20.41;63.59;102022.19;5045329;28;20429;-86
2023/10/06 07:02:41;;;;;;;;;;;;;;;20.34;63.87;102021.06;5047573;28;19916;-85
2023/10/06 07:05:07;;;;;;;;;;;;;;;20.37;63.87;102029.13;5027115;28;20369;-85
2023/10/06 07:07:32;;;;;;;;;;;;;;;20.34;63.81;102029.03;5007790;28;19918;-85
2023/10/06 07:09:59;;;;;;;;;;;;;;;20.31;64.06;102026.25;5030514;28;19955;-85
2023/10/06 07:12:24;;;;;;;;;;;;;;;20.23;64.36;102031.28;5006379;28;19940;-85
2023/10/06 07:14:50;;;;;;;;;;;;;;;20.26;64.23;102023.47;5009438;28;20310;-85
2023/10/06 07:17:15;;;;;;;;;;;;;;;20.29;64.38;102025.31;5031989;28;19925;-85
2023/10/06 07:19:41;;;;;;;;;;;;;;;20.27;64.26;102016.41;5018247;28;19921;-86
2023/10/06 07:22:06;;;;;;;;;;;;;;;20.26;64.36;102020.81;5032657;28;19976;-86
2023/10/06 07:24:31;;;;;;;;;;;;;;;20.27;64.45;102019.03;5016051;28;19952;-87
2023/10/06 07:26:57;;;;;;;;;;;;;;;20.19;65.50;102017.88;5032438;28;19920;-85
2023/10/06 07:29:22;;;;;;;;;;;;;;;20.19;65.03;102018.78;5029197;28;19924;-85
2023/10/06 07:31:49;;;;;;;;;;;;;;;20.20;64.83;102020.59;5020437;28;19917;-87
2023/10/06 07:34:15;;;;;;;;;;;;;;;20.18;64.78;102014.34;5014479;28;19949;-86
2023/10/06 07:36:42;;;;;;;;;;;;;;;20.18;65.48;102024.94;5012708;28;20007;-86
2023/10/06 07:39:08;;;;;;;;;;;;;;;20.23;65.66;102020.69;5030871;28;19913;-87
2023/10/06 07:41:34;;;;;;;;;;;;;;;20.20;65.27;102019.69;5021622;28;20328;-85
2023/10/06 07:43:59;;;;;;;;;;;;;;;20.23;64.65;102015.38;5007853;28;19921;-85
2023/10/06 07:46:26;;;;;;;;;;;;;;;20.19;65.24;102029.38;5039754;28;19924;-85
2023/10/06 07:48:55;;;;;;;;;;;;;;;20.18;66.18;102026.69;5029488;28;19944;-84
2023/10/06 07:51:21;;;;;;;;;;;;;;;20.18;65.40;102029.34;5025087;28;19917;-86
2023/10/06 07:53:46;;;;;;;;;;;;;;;20.17;66.13;102019.56;5012956;28;20301;-85
2023/10/06 07:56:14;;;;;;;;;;;;;;;20.15;65.99;102019.53;5031251;28;19921;-85
2023/10/06 07:58:41;;;;;;;;;;;;;;;20.16;66.02;102025.75;5011173;28;19976;-86
2023/10/06 08:01:12;;;;;;;;;;;;;;;20.21;64.76;102021.47;5020267;28;20007;-85
2023/10/06 08:03:38;;;;;;;;;;;;;;;20.19;66.16;102021.41;5016156;28;20374;-85
2023/10/06 08:06:05;;;;;;;;;;;;;;;20.16;66.17;102029.28;5046354;28;19928;-85
2023/10/06 08:08:33;;;;;;;;;;;;;;;20.16;66.40;102029.28;5052676;28;19913;-86
2023/10/06 08:11:01;;;;;;;;;;;;;;;20.24;65.60;102030.47;5042022;28;19913;-85
2023/10/06 08:13:28;;;;;;;;;;;;;;;20.23;66.11;102026.00;5045330;28;20417;-85
2023/10/06 08:15:53;;;;;;;;;;;;;;;20.27;65.93;102027.00;5052824;28;19963;-86
2023/10/06 08:18:19;;;;;;;;;;;;;;;20.20;66.46;102025.91;5039767;28;19921;-86
2023/10/06 08:20:46;;;;;;;;;;;;;;;20.32;65.61;102026.31;5035156;28;19920;-85
2023/10/06 08:23:12;;;;;;;;;;;;;;;20.25;65.76;102028.69;5052694;28;20385;-85
2023/10/06 08:25:37;;;;;;;;;;;;;;;20.20;66.73;102028.56;5043123;28;19921;-84
2023/10/06 08:28:05;;;;;;;;;;;;;;;20.18;66.76;102026.69;5019721;28;19920;-85
2023/10/06 08:30:32;;;;;;;;;;;;;;;20.19;67.00;102028.50;5034366;28;19920;-84
2023/10/06 08:32:59;;;;;;;;;;;;;;;20.15;66.47;102027.50;5032075;28;19920;-85
2023/10/06 08:35:26;;;;;;;;;;;;;;;20.20;66.94;102025.91;5050486;28;19917;-85
2023/10/06 08:37:52;;;;;;;;;;;;;;;20.21;66.93;102026.78;5027263;28;20306;-85
2023/10/06 08:40:19;;;;;;;;;;;;;;;20.21;66.73;102027.69;5030897;28;20059;-85
2023/10/06 08:42:54;;;;;;;;;;;;;;;20.27;66.22;102030.56;5049269;28;19935;-86
2023/10/06 08:45:21;;;;;;;;;;;;;;;20.21;66.65;102027.69;5025827;28;20592;-86
2023/10/06 08:47:50;;;;;;;;;;;;;;;20.23;66.76;102022.44;5034247;28;19916;-85
2023/10/06 08:50:22;;;;;;;;;;;;;;;20.21;66.82;102025.03;5030221;28;19968;-86
2023/10/06 08:52:50;;;;;;;;;;;;;;;20.18;66.93;102024.03;5043015;28;20122;-85
2023/10/06 08:55:15;;;;;;;;;;;;;;;20.23;66.57;102020.69;5034150;28;19920;-86
2023/10/06 08:57:41;;;;;;;;;;;;;;;20.30;66.49;102019.16;5026760;28;20000;-86
2023/10/06 09:00:07;;;;;;;;;;;;;;;20.25;66.93;102018.09;5052824;28;19958;-85
2023/10/06 09:02:32;;;;;;;;;;;;;;;20.24;66.76;102025.16;5037427;28;19917;-85
2023/10/06 09:04:58;;;;;;;;;;;;;;;20.28;66.84;102027.06;5021275;28;20354;-86
2023/10/06 09:07:23;;;;;;;;;;;;;;;20.40;65.73;102028.31;5034170;28;20305;-85
2023/10/06 09:09:49;;;;;;;;;;;;;;;20.33;66.60;102027.22;5030595;28;19913;-86
2023/10/06 09:12:21;;;;;;;;;;;;;;;20.37;66.12;102031.78;5014488;28;19913;-84
2023/10/06 09:14:56;;;;;;;;;;;;;;;20.29;66.88;102025.31;5020232;28;19921;-86
2023/10/06 09:17:30;;;;;;;;;;;;;;;20.32;66.68;102023.66;5025366;28;20305;-86
2023/10/06 09:19:55;;;;;;;;;;;;;;;20.31;66.71;102023.59;5017032;28;20286;-86
2023/10/06 09:22:24;;;;;;;;;;;;;;;20.45;66.23;102030.28;5009469;28;19924;-86
2023/10/06 09:25:00;;;;;;;;;;;;;;;20.38;66.61;102036.22;5018553;28;19936;-86
2023/10/06 09:27:26;;;;;;;;;;;;;;;20.30;66.59;102035.09;5020128;28;20000;-86
2023/10/06 09:30:00;;;;;;;;;;;;;;;20.29;66.75;102033.25;5019281;28;20032;-86
2023/10/06 09:32:26;;;;;;;;;;;;;;;20.27;67.01;102034.97;4999214;28;19971;-86
2023/10/06 09:34:53;;;;;;;;;;;;;;;20.34;66.68;102032.59;5040403;28;19917;-84
2023/10/06 09:37:22;;;;;;;;;;;;;;;20.37;66.65;102029.13;5032375;28;20106;-85
2023/10/06 09:39:54;;;;;;;;;;;;;;;20.37;66.72;102034.44;5003590;28;19921;-84
2023/10/06 09:42:20;;;;;;;;;;;;;;;20.26;67.23;102033.19;4995972;28;19914;-85
2023/10/06 09:44:45;;;;;;;;;;;;;;;20.33;66.95;102043.13;5015774;28;20011;-85
2023/10/06 09:47:11;;;;;;;;;;;;;;;20.40;66.78;102033.63;5024494;28;19916;-85
2023/10/06 09:49:37;;;;;;;;;;;;;;;20.37;66.65;102042.41;5025035;28;20075;-85
2023/10/06 09:52:02;;;;;;;;;;;;;;;20.36;66.98;102034.38;5020926;28;19913;-85
2023/10/06 09:54:28;;;;;;;;;;;;;;;20.37;66.69;102036.19;5017039;28;19913;-85
2023/10/06 09:56:55;;;;;;;;;;;;;;;20.43;66.30;102037.31;5028486;28;20024;-86
2023/10/06 09:59:21;;;;;;;;;;;;;;;20.40;66.39;102034.53;4989740;28;19913;-86
2023/10/06 10:01:47;;;;;;;;;;;;;;;20.41;66.61;102028.38;5036764;28;19987;-86
2023/10/06 10:04:13;;;;;;;;;;;;;;;20.53;66.31;102023.50;5008588;28;20476;-85
2023/10/06 10:06:44;;;;;;;;;;;;;;;20.47;66.65;102017.09;5026613;28;19925;-85
2023/10/06 10:09:16;;;;;;;;;;;;;;;20.42;66.69;102024.88;5029618;28;19924;-86
2023/10/06 10:12:02;;;;;;;;;;;;;;;20.45;66.62;102021.44;5033398;28;19917;-86
2023/10/06 10:14:37;;;;;;;;;;;;;;;20.32;67.20;102021.03;5018788;28;20385;-87
2023/10/06 10:17:13;;;;;;;;;;;;;;;20.40;66.87;102020.38;5055088;28;19928;-85
2023/10/06 10:19:40;;;;;;;;;;;;;;;20.43;66.72;102010.75;5053155;28;19955;-86
2023/10/06 10:22:05;;;;;;;;;;;;;;;20.37;66.80;102009.66;5036435;28;19970;-86
2023/10/06 10:24:34;;;;;;;;;;;;;;;20.41;66.68;102006.25;5034133;28;20015;-85
2023/10/06 10:26:59;;;;;;;;;;;;;;;20.34;67.01;102002.50;5036264;28;19920;-85
2023/10/06 10:29:25;;;;;;;;;;;;;;;20.42;66.78;102000.09;5036567;28;19917;-85
2023/10/06 10:31:51;;;;;;;;;;;;;;;20.32;67.13;101999.78;5054897;28;19923;-86
2023/10/06 10:34:23;;;;;;;;;;;;;;;20.35;67.05;101993.69;5053822;28;19912;-85
2023/10/06 10:37:07;;;;;;;;;;;;;;;20.41;66.90;101988.59;5037078;28;20030;-86
2023/10/06 10:39:39;;;;;;;;;;;;;;;20.50;66.64;101988.88;5042364;28;19917;-84
2023/10/06 10:42:05;;;;;;;;;;;;;;;20.51;66.24;101979.16;5035113;28;20007;-86
2023/10/06 10:44:30;;;;;;;;;;;;;;;20.57;65.95;101978.47;5020084;28;20006;-86
2023/10/06 10:47:01;;;;;;;;;;;;;;;20.46;66.86;101972.81;5021898;28;20059;-86
2023/10/06 10:49:32;;;;;;;;;;;;;;;20.46;66.82;101973.69;5030397;28;19929;-85
2023/10/06 10:52:02;;;;;;;;;;;;;;;20.48;66.88;101972.00;5037034;28;19913;-85
2023/10/06 10:54:28;;;;;;;;;;;;;;;20.45;67.10;101965.72;5035090;28;19921;-85
2023/10/06 10:57:01;;;;;;;;;;;;;;;20.47;66.92;101964.00;5051251;28;19925;-85
2023/10/06 10:59:47;;;;;;;;;;;;;;;20.41;67.11;101958.50;5015947;28;20329;-85
2023/10/06 11:02:13;;;;;;;;;;;;;;;20.41;67.08;101956.75;5052871;28;20003;-85
2023/10/06 11:04:40;;;;;;;;;;;;;;;20.39;67.30;101954.91;5018034;28;20003;-85
2023/10/06 11:07:10;;;;;;;;;;;;;;;20.42;67.31;101953.22;5019774;28;19917;-86
2023/10/06 11:09:46;;;;;;;;;;;;;;;20.38;67.37;101950.44;5019391;28;19912;-84
2023/10/06 11:12:23;;;;;;;;;;;;;;;20.37;67.37;101943.34;5028477;28;19967;-84
2023/10/06 11:14:52;;;;;;;;;;;;;;;20.44;67.24;101951.53;5032978;28;19919;-86
2023/10/06 11:17:21;;;;;;;;;;;;;;;20.40;67.26;101946.97;5033345;28;19921;-85
2023/10/06 11:19:46;;;;;;;;;;;;;;;20.43;67.27;101952.38;5054807;28;19916;-85
2023/10/06 11:22:13;;;;;;;;;;;;;;;20.44;67.37;101945.31;5052525;28;19923;-84
2023/10/06 11:24:44;;;;;;;;;;;;;;;20.45;67.34;101947.13;5035031;28;19917;-85
2023/10/06 11:27:11;;;;;;;;;;;;;;;20.45;67.44;101941.84;5036776;28;19919;-84
2023/10/06 11:29:36;;;;;;;;;;;;;;;20.50;67.16;101943.75;5035777;28;19959;-84
2023/10/06 11:32:02;;;;;;;;;;;;;;;20.56;67.10;101939.53;5035657;28;19952;-84
2023/10/06 11:34:27;;;;;;;;;;;;;;;20.51;67.07;101934.97;5037833;28;19917;-84
2023/10/06 11:36:59;;;;;;;;;;;;;;;20.51;67.06;101934.03;5052229;28;19974;-84
2023/10/06 11:39:31;;;;;;;;;;;;;;;20.56;67.15;101944.81;5006962;28;19913;-84
2023/10/06 11:42:15;;;;;;;;;;;;;;;20.53;67.16;101938.56;5038515;28;19923;-84
2023/10/06 11:44:40;;;;;;;;;;;;;;;20.55;67.14;101938.59;5053590;28;19913;-84
2023/10/06 11:47:06;;;;;;;;;;;;;;;20.48;67.29;101939.25;5035102;28;19940;-84
2023/10/06 11:49:33;;;;;;;;;;;;;;;20.49;67.15;101939.31;5032778;28;19927;-84
2023/10/06 11:51:58;;;;;;;;;;;;;;;20.52;67.10;101938.50;5052517;28;19963;-85
2023/10/06 11:54:25;;;;;;;;;;;;;;;20.52;67.26;101933.19;5023773;28;19952;-84
2023/10/06 11:56:52;;;;;;;;;;;;;;;20.57;67.02;101933.34;5021366;28;19952;-86
2023/10/06 11:59:22;;;;;;;;;;;;;;;20.58;66.72;101936.09;5034842;28;19916;-86
2023/10/06 12:01:48;;;;;;;;;;;;;;;20.54;67.30;101935.06;5028600;28;20390;-86
2023/10/06 12:04:30;;;;;;;;;;;;;;;20.56;67.08;101936.88;5034231;28;19967;-86
2023/10/06 12:06:56;;;;;;;;;;;;;;;20.60;66.92;101930.84;5041829;28;19975;-86
2023/10/06 12:09:24;;;;;;;;;;;;;;;20.62;67.08;101934.44;5051713;28;19917;-84
2023/10/06 12:11:50;;;;;;;;;;;;;;;20.62;66.90;101929.13;5024778;28;20012;-85
2023/10/06 12:14:15;;;;;;;;;;;;;;;20.61;66.77;101932.63;5053425;28;19960;-85
2023/10/06 12:16:44;;;;;;;;;;;;;;;20.60;66.80;101933.50;5037678;28;20015;-85
2023/10/06 12:19:11;;;;;;;;;;;;;;;20.57;66.80;101931.59;5034889;28;19917;-86
2023/10/06 12:21:36;;;;;;;;;;;;;;;20.64;67.61;101930.97;5033386;28;19924;-84
2023/10/06 12:24:02;;;;;;;;;;;;;;;20.75;66.59;101928.66;5052538;28;19917;-85
2023/10/06 12:26:28;;;;;;;;;;;;;;;20.88;66.07;101937.88;5049789;28;19917;-84
2023/10/06 12:28:54;;;;;;;;;;;;;;;20.87;65.89;101934.34;5051859;28;19921;-85
2023/10/06 12:31:19;;;;;;;;;;;;;;;20.76;66.14;101929.53;5029356;28;20382;-85
2023/10/06 12:33:45;;;;;;;;;;;;;;;20.68;66.35;101931.94;5045048;28;20016;-84
2023/10/06 12:36:12;;;;;;;;;;;;;;;20.67;66.63;101936.38;5052397;28;20022;-85
2023/10/06 12:38:39;;;;;;;;;;;;;;;20.89;65.83;101947.66;5021411;28;20302;-86
2023/10/06 12:41:06;;;;;;;;;;;;;;;20.92;65.78;101940.69;5034421;28;19917;-84
2023/10/06 12:43:35;;;;;;;;;;;;;;;20.79;66.28;101938.50;5065929;28;19917;-84